Latest Weather Observations for Orbost

IDV60801

Issued at 2:02 pm EST Thursday 28 May 2015 (issued every 30 minutes, with the page automatically refreshed every 10 minutes)

About weather observations | Map of weather stations | Latest weather observations for VIC | Other Formats
Station Details ID: 084145 Name: ORBOST Lat: -37.69 Lon: 148.47 Height: 62.65 m
Data from the previous 72 hours. | See also: Recent months at Orbost
Date/Time
EST
Temp
°C
App
Temp
°C
Dew
Point
Rel
Hum
%
Delta-T
°C
Wind Press
QNH
hPa
Press
MSL
hPa
Rain
since 9 am
mm
Dir
 
Spd
km/h
Gust
km/h
Spd
kts
Gust
kts
28/02:00pm 20.4 17.0 9.3 49 5.9 N 17 24 9 13 1015.9 1015.9 0.0
28/01:30pm 20.3 17.6 8.9 48 6.0 NNW 13 19 7 10 1016.4 1016.4 0.0
28/01:00pm 20.3 17.1 8.6 47 6.1 N 15 22 8 12 1016.8 1016.8 0.0
28/12:30pm 19.1 15.7 9.3 53 5.2 N 17 26 9 14 1017.3 1017.3 0.0
28/12:00pm 18.7 14.9 8.9 53 5.1 N 19 24 10 13 1017.6 1017.6 0.0
28/11:30am 18.5 14.8 9.6 56 4.7 N 19 30 10 16 1018.1 1018.1 0.0
28/11:00am 17.6 14.7 9.5 59 4.2 N 15 24 8 13 1018.5 1018.5 0.0
28/10:30am 16.7 14.4 9.1 61 3.9 N 11 15 6 8 1019.1 1019.1 0.0
28/10:00am 15.8 13.2 9.2 65 3.4 N 13 17 7 9 1019.4 1019.4 0.0
28/09:30am 14.3 14.3 9.7 74 2.4 CALM 0 6 0 3 1019.5 1019.5 0.0
28/09:00am 14.8 13.4 9.0 68 3.0 NNE 6 15 3 8 1019.6 1019.6 0.0
28/08:30am 14.1 13.3 9.5 74 2.4 NNE 4 7 2 4 1019.5 1019.5 0.0
28/08:00am 11.6 10.8 8.3 80 1.6 NNW 2 6 1 3 1019.4 1019.4 0.0
28/07:30am 11.4 10.0 7.3 76 2.0 W 4 6 2 3 1019.3 1019.3 0.0
28/07:00am 12.5 10.8 8.4 76 2.0 NE 7 11 4 6 1019.0 1019.0 0.0
28/06:30am 10.0 8.9 7.1 82 1.4 WNW 2 2 1 1 1019.1 1019.1 0.0
28/06:00am 10.0 9.3 6.9 81 1.5 CALM 0 2 0 1 1018.8 1018.8 0.0
28/05:30am 10.4 8.8 6.2 75 2.0 NW 4 11 2 6 1018.6 1018.6 0.0
28/05:00am 13.4 11.8 8.7 73 2.4 NNE 7 15 4 8 1018.3 1018.3 0.0
28/04:30am 9.8 8.8 7.2 84 1.2 W 2 6 1 3 1018.8 1018.8 0.0
28/04:00am 11.2 9.4 7.9 80 1.6 N 7 13 4 7 1018.6 1018.6 0.0
28/03:30am 9.7 9.0 7.1 84 1.2 CALM 0 0 0 0 1019.0 1019.0 0.0
28/03:00am 9.4 8.4 7.2 86 1.0 SW 2 4 1 2 1019.1 1019.1 0.0
28/02:30am 9.3 8.0 6.2 81 1.4 NW 2 2 1 1 1019.4 1019.4 0.0
28/02:00am 11.7 9.9 7.2 74 2.2 N 6 9 3 5 1019.4 1019.4 0.0
28/01:30am 11.6 9.6 7.1 74 2.2 N 7 9 4 5 1019.7 1019.7 0.0
28/01:00am 11.0 9.1 6.9 76 1.9 N 6 7 3 4 1019.8 1019.8 0.0
28/12:30am 11.2 9.5 7.5 78 1.8 N 6 6 3 3 1020.0 1020.0 0.0
28/12:00am 10.5 9.9 7.2 80 1.6 CALM 0 4 0 2 1020.2 1020.2 0.0
 
Date/Time
EST
Temp
°C
App
Temp
°C
Dew
Point
Rel
Hum
%
Delta-T
°C
Wind Press
QNH
hPa
Press
MSL
hPa
Rain
since 9 am
mm
Dir
 
Spd
km/h
Gust
km/h
Spd
kts
Gust
kts
27/11:30pm 12.6 12.2 8.1 74 2.2 CALM 0 0 0 0 1020.3 1020.3 0.0
27/11:00pm 11.9 11.3 7.6 75 2.1 CALM 0 0 0 0 1020.3 1020.3 0.0
27/10:30pm 12.3 11.8 8.0 75 2.1 CALM 0 0 0 0 1020.3 1020.3 0.0
27/10:00pm 12.4 11.9 7.9 74 2.2 CALM 0 0 0 0 1020.3 1020.3 0.0
27/09:30pm 12.9 12.5 8.4 74 2.2 CALM 0 2 0 1 1020.2 1020.2 0.0
27/09:00pm 13.3 12.6 8.6 73 2.4 NW 2 4 1 2 1020.3 1020.3 0.0
27/08:30pm 13.5 11.9 8.1 70 2.7 NNW 6 7 3 4 1020.1 1020.1 0.0
27/08:00pm 13.5 12.4 8.6 72 2.5 NNW 4 6 2 3 1020.0 1020.0 0.0
27/07:30pm 13.7 12.3 9.4 75 2.2 N 7 9 4 5 1019.9 1019.9 0.0
27/07:00pm 13.1 11.9 9.5 79 1.8 N 6 9 3 5 1019.7 1019.7 0.0
27/06:30pm 13.7 13.5 10.5 81 1.7 NNW 2 4 1 2 1019.5 1019.5 0.0
27/06:00pm 13.8 14.2 11.3 85 1.3 CALM 0 0 0 0 1019.4 1019.4 0.0
27/05:30pm 13.6 13.6 11.3 86 1.2 NNE 2 6 1 3 1019.3 1019.3 0.0
27/05:00pm 15.1 15.7 11.9 81 1.7 CALM 0 0 0 0 1019.1 1019.1 0.0
27/04:30pm 16.3 16.9 11.9 75 2.4 CALM 0 0 0 0 1019.0 1019.0 0.0
27/04:00pm 16.4 16.8 11.3 72 2.7 CALM 0 0 0 0 1018.9 1018.9 0.0
27/03:30pm 17.1 17.5 11.2 68 3.2 CALM 0 0 0 0 1018.9 1018.9 0.0
27/03:00pm 17.5 16.8 10.1 62 3.9 N 4 6 2 3 1018.9 1018.9 0.0
27/02:30pm 18.0 17.0 8.8 55 4.8 NNW 4 7 2 4 1019.0 1019.0 0.0
27/02:00pm 17.7 16.8 9.3 58 4.4 NNW 4 6 2 3 1019.3 1019.3 0.0
27/01:30pm 17.7 16.4 7.7 52 5.1 NW 4 7 2 4 1019.4 1019.4 0.0
27/01:00pm 18.1 16.2 6.9 48 5.6 NW 6 9 3 5 1019.9 1019.9 0.0
27/12:30pm 18.4 16.4 7.2 48 5.7 NW 7 11 4 6 1020.3 1020.3 0.0
27/12:00pm 18.6 16.9 7.4 48 5.7 WNW 6 7 3 4 1020.7 1020.7 0.0
27/11:30am 17.7 16.2 6.9 49 5.4 W 4 6 2 3 1021.0 1021.0 0.0
27/11:00am 17.0 15.6 7.4 53 4.8 NW 4 7 2 4 1021.7 1021.7 0.0
27/10:30am 15.0 14.1 7.8 62 3.6 WNW 2 4 1 2 1022.1 1022.1 0.0
27/10:00am 13.2 11.7 6.8 65 3.1 WNW 4 6 2 3 1022.3 1022.3 0.0
27/09:30am 12.1 10.7 5.5 64 3.1 NW 2 4 1 2 1022.2 1022.2 0.0
27/09:00am 10.1 9.5 7.5 84 1.2 CALM 0 4 0 2 1022.4 1022.5 0.0
27/08:30am 9.0 8.2 6.3 83 1.2 CALM 0 0 0 0 1022.4 1022.5 0.0
27/08:00am 8.5 7.4 5.1 79 1.5 CALM 0 0 0 0 1022.5 1022.6 0.0
27/07:30am 8.4 6.9 5.2 80 1.4 NE 2 4 1 2 1022.3 1022.3 0.0
27/07:00am 7.6 6.6 5.7 88 0.9 CALM 0 0 0 0 1022.4 1022.5 0.0
27/06:30am 7.5 6.4 5.1 85 1.1 CALM 0 0 0 0 1022.4 1022.5 0.0
27/06:00am 7.9 6.8 5.0 82 1.3 CALM 0 0 0 0 1022.3 1022.3 0.0
27/05:30am 7.9 6.9 5.5 85 1.1 CALM 0 0 0 0 1022.2 1022.2 0.0
27/05:00am 7.6 6.2 5.7 88 0.9 W 2 4 1 2 1022.2 1022.2 0.0
27/04:30am 9.1 7.0 5.7 79 1.6 N 6 11 3 6 1022.1 1022.1 0.0
27/04:00am 7.9 6.4 6.8 93 0.5 N 4 7 2 4 1022.4 1022.5 0.0
27/03:30am 7.7 6.2 7.0 95 0.3 NNE 4 6 2 3 1022.5 1022.6 0.0
27/03:00am 7.3 5.8 6.6 95 0.3 NW 4 4 2 2 1023.1 1023.2 0.0
27/02:30am 7.6 6.9 6.9 95 0.3 CALM 0 0 0 0 1023.2 1023.3 0.0
27/02:00am 7.6 6.8 6.7 94 0.4 CALM 0 4 0 2 1023.6 1023.7 0.0
27/01:30am 7.9 6.8 7.0 94 0.4 E 2 6 1 3 1023.7 1023.8 0.0
27/01:00am 8.1 7.4 7.0 93 0.5 CALM 0 0 0 0 1024.1 1024.1 0.0
27/12:30am 8.1 7.1 7.2 94 0.4 N 2 4 1 2 1024.3 1024.3 0.0
27/12:00am 7.8 6.0 7.1 95 0.3 NNW 6 7 3 4 1024.5 1024.5 0.0
 
Date/Time
EST
Temp
°C
App
Temp
°C
Dew
Point
Rel
Hum
%
Delta-T
°C
Wind Press
QNH
hPa
Press
MSL
hPa
Rain
since 9 am
mm
Dir
 
Spd
km/h
Gust
km/h
Spd
kts
Gust
kts
26/11:30pm 7.4 5.5 6.8 96 0.3 NNW 6 7 3 4 1024.6 1024.6 0.0
26/11:00pm 7.4 6.3 6.8 96 0.3 ESE 2 4 1 2 1024.7 1024.7 0.0
26/10:30pm 7.2 6.0 6.5 95 0.3 WSW 2 7 1 4 1025.1 1025.1 0.0
26/10:00pm 7.5 6.0 6.6 94 0.4 NNE 4 6 2 3 1025.2 1025.2 0.0
26/09:30pm 7.9 7.2 7.0 94 0.4 CALM 0 0 0 0 1025.6 1025.6 0.0
26/09:00pm 8.2 7.2 7.3 94 0.4 E 2 4 1 2 1025.9 1025.9 0.0
26/08:30pm 7.3 5.3 6.2 93 0.5 N 6 7 3 4 1026.5 1026.5 0.0
26/08:00pm 8.0 7.3 6.9 93 0.5 CALM 0 0 0 0 1026.4 1026.4 0.0
26/07:30pm 8.7 8.1 7.3 91 0.7 CALM 0 2 0 1 1026.4 1026.4 0.0
26/07:00pm 8.5 7.4 7.1 91 0.7 NE 2 4 1 2 1026.5 1026.5 0.0
26/06:30pm 9.1 8.1 7.5 90 0.8 ENE 2 2 1 1 1026.6 1026.6 0.0
26/06:00pm 9.0 7.9 7.1 88 0.9 N 2 4 1 2 1026.6 1026.6 0.0
26/05:30pm 9.5 8.2 7.6 88 0.9 N 4 4 2 2 1026.4 1026.4 0.0
26/05:00pm 10.4 9.1 7.5 82 1.4 E 4 4 2 2 1026.2 1026.2 0.0
26/04:30pm 11.7 10.3 7.2 74 2.2 SE 4 6 2 3 1026.3 1026.3 0.0
26/04:00pm 13.2 11.5 7.4 68 2.8 SE 6 9 3 5 1026.5 1026.5 0.0
26/03:30pm 13.7 11.9 7.0 64 3.3 S 6 9 3 5 1026.5 1026.5 0.0
26/03:00pm 14.6 12.7 6.9 60 3.7 SSE 6 9 3 5 1026.4 1026.4 0.0
26/02:30pm 14.9 13.0 5.1 52 4.6 SE 4 7 2 4 1026.4 1026.4 0.0
26/02:00pm 16.0 14.2 5.3 49 5.1 WNW 4 7 2 4 1026.6 1026.6 0.0
26/01:30pm 15.3 13.7 4.7 49 5.0 SW 2 6 1 3 1027.0 1027.0 0.0
26/01:00pm 15.4 13.7 5.9 53 4.5 WNW 4 7 2 4 1027.4 1027.4 0.0
26/12:30pm 14.8 13.0 5.3 53 4.5 WNW 4 7 2 4 1027.8 1027.8 0.0
26/12:00pm 14.4 12.5 5.0 53 4.4 WNW 4 7 2 4 1028.4 1028.4 0.0
26/11:30am 14.4 12.1 4.7 52 4.5 NW 6 7 3 4 1029.1 1029.1 0.0
26/11:00am 12.9 11.0 5.1 59 3.6 WNW 4 6 2 3 1029.6 1029.6 0.0
26/10:30am 11.7 9.8 5.1 64 3.0 WNW 4 6 2 3 1030.0 1030.0 0.0
26/10:00am 9.8 8.0 5.6 75 1.9 W 4 6 2 3 1030.1 1030.1 0.0
26/09:30am 8.6 7.5 5.2 79 1.5 CALM 0 0 0 0 1029.9 1029.9 0.0
26/09:00am 6.9 5.7 4.6 85 1.0 CALM 0 0 0 0 1030.1 1030.1 0.2
26/08:30am 6.3 5.1 4.5 88 0.8 CALM 0 2 0 1 1030.2 1030.2 0.2
26/08:00am 4.5 2.2 2.7 88 0.7 NW 4 6 2 3 1030.2 1030.2 0.2
26/07:30am 4.4 2.5 2.8 89 0.7 NNW 2 4 1 2 1030.0 1030.0 0.2
26/07:00am 4.6 1.9 2.9 89 0.7 N 6 7 3 4 1029.7 1029.7 0.2
26/06:30am 4.3 2.4 2.8 90 0.6 NNW 2 2 1 1 1029.6 1029.6 0.2
26/06:00am 4.1 1.8 2.8 91 0.5 N 4 4 2 2 1029.5 1029.5 0.2
26/05:30am 4.0 1.7 2.7 91 0.5 NNW 4 4 2 2 1029.5 1029.5 0.2
26/05:00am 4.3 2.8 3.0 91 0.5 CALM 0 0 0 0 1029.3 1029.3 0.2
26/04:30am 4.6 2.7 3.1 90 0.6 NNW 2 2 1 1 1029.3 1029.3 0.2
26/04:00am 4.2 2.7 2.9 91 0.5 CALM 0 0 0 0 1029.3 1029.3 0.2
26/03:30am 4.7 3.2 3.2 90 0.6 CALM 0 0 0 0 1029.5 1029.5 0.2
26/03:00am 5.0 3.5 3.2 88 0.7 CALM 0 0 0 0 1029.6 1029.6 0.2
26/02:30am 5.2 3.3 3.1 86 0.9 NNW 2 2 1 1 1029.7 1029.7 0.0
26/02:00am 6.2 4.9 4.0 86 0.9 CALM 0 0 0 0 1029.9 1029.9 0.0
26/01:30am 5.8 4.1 3.8 87 0.8 NNW 2 4 1 2 1029.8 1029.8 0.0
26/01:00am 5.5 4.1 3.5 87 0.8 CALM 0 0 0 0 1029.8 1029.8 0.0
26/12:30am 5.9 4.2 3.9 87 0.8 NNW 2 4 1 2 1029.8 1029.8 0.0
26/12:00am 6.4 5.2 4.4 87 0.9 CALM 0 2 0 1 1030.2 1030.2 0.0
 
Date/Time
EST
Temp
°C
App
Temp
°C
Dew
Point
Rel
Hum
%
Delta-T
°C
Wind Press
QNH
hPa
Press
MSL
hPa
Rain
since 9 am
mm
Dir
 
Spd
km/h
Gust
km/h
Spd
kts
Gust
kts
25/11:30pm 5.8 4.1 3.8 87 0.8 N 2 4 1 2 1030.4 1030.4 0.0
25/11:00pm 6.8 5.6 4.5 85 1.0 CALM 0 0 0 0 1030.6 1030.6 0.0
25/10:30pm 7.0 5.7 4.1 82 1.3 CALM 0 0 0 0 1030.6 1030.6 0.0
25/10:00pm 7.4 5.8 4.4 81 1.3 N 2 4 1 2 1030.7 1030.7 0.0
25/09:30pm 7.3 4.9 4.3 81 1.3 N 6 6 3 3 1030.7 1030.7 0.0
25/09:00pm 7.4 5.5 4.9 84 1.1 N 4 6 2 3 1030.8 1030.8 0.0
25/08:30pm 7.3 5.7 4.6 83 1.2 NNW 2 6 1 3 1030.8 1030.8 0.0
25/08:00pm 7.5 6.4 5.1 85 1.1 CALM 0 0 0 0 1030.6 1030.6 0.0
25/07:30pm 8.1 7.0 5.0 81 1.4 CALM 0 2 0 1 1030.4 1030.4 0.0
25/07:00pm 8.9 6.7 5.3 78 1.6 N 6 7 3 4 1030.0 1030.0 0.0
25/06:30pm 9.7 7.5 6.4 80 1.5 N 7 9 4 5 1030.0 1030.0 0.0
25/06:00pm 9.9 7.9 7.2 83 1.3 NNE 7 9 4 5 1029.8 1029.8 0.0
25/05:30pm 10.5 8.7 7.9 84 1.3 N 7 11 4 6 1029.7 1029.7 0.0
25/05:00pm 10.4 9.1 7.8 84 1.2 NW 4 6 2 3 1029.7 1029.7 0.0
25/04:30pm 11.6 10.3 7.7 77 1.9 N 4 4 2 2 1029.3 1029.3 0.0
25/04:00pm 12.3 10.8 7.0 70 2.5 NNW 4 6 2 3 1029.4 1029.4 0.0
25/03:30pm 12.9 11.2 5.8 62 3.3 NNW 4 6 2 3 1029.4 1029.4 0.0
25/03:00pm 13.6 12.0 6.2 61 3.5 NW 4 6 2 3 1029.5 1029.5 0.0
25/02:30pm 14.0 11.9 5.6 57 4.0 NNW 6 9 3 5 1029.5 1029.5 0.0

Other Formats:

Comma delimited format used in spreadsheet applications
http://www.bom.gov.au/fwo/IDV60801/IDV60801.95918.axf

JavaScript Object Notation format (JSON) in row-major order
http://www.bom.gov.au/fwo/IDV60801/IDV60801.95918.json